INDIA METEOROLOGICAL DEPARTMENT, R.M.C. NEW DELHI
Dated:26 - 8 - 2019
METARS OF ALTERNATE AIRPORTS
Delhi      
VIDP 260430Z 13009KT 4000 HZ FEW035 SCT100 31/24 Q1005 NOSIG=
Lucknow    
VILK 260430Z 10007KT 3000 BR SCT020 SCT025 31/28 Q1004 NOSIG=
Jaipur     
VIJP 260430Z 06006KT 2500 BR SCT030 BKN100 29/25 Q1005 NOSIG=
Ahmedabad  
VAAH 260400Z 34002KT 2500 -RA FEW015 SCT020 OVC080 26/25 Q1006 TEMPO 2000 RA=
Udaipur    
VAUD 260400Z 00000KT 3000 HZ BKN025 OVC080 25/24 Q1006 NOSIG=
Mumbai     
VABB 260430Z 16006KT 2500 HZ SCT018 SCT025 28/25 Q1006 BECMG 3000 HZ=